sensor_id;sensor_type;location;lat;lon;timestamp;temperature;humidity
24226;DHT22;51462;51.422;5.514;2022-07-09T00:01:57;19.10;99.90
24226;DHT22;51462;51.422;5.514;2022-07-09T00:04:23;19.20;99.90
24226;DHT22;51462;51.422;5.514;2022-07-09T00:06:49;19.10;99.90
24226;DHT22;51462;51.422;5.514;2022-07-09T00:09:14;19.00;99.90
24226;DHT22;51462;51.422;5.514;2022-07-09T00:11:40;18.90;99.90
24226;DHT22;51462;51.422;5.514;2022-07-09T00:14:05;18.70;99.90
24226;DHT22;51462;51.422;5.514;2022-07-09T00:16:31;18.70;99.90
24226;DHT22;51462;51.422;5.514;2022-07-09T00:18:56;18.70;99.90
24226;DHT22;51462;51.422;5.514;2022-07-09T00:21:22;18.60;99.90
24226;DHT22;51462;51.422;5.514;2022-07-09T00:23:48;18.60;99.90
24226;DHT22;51462;51.422;5.514;2022-07-09T00:26:14;18.60;99.90
24226;DHT22;51462;51.422;5.514;2022-07-09T00:28:39;18.50;99.90
24226;DHT22;51462;51.422;5.514;2022-07-09T00:31:05;18.40;99.90
24226;DHT22;51462;51.422;5.514;2022-07-09T00:33:30;18.40;99.90
24226;DHT22;51462;51.422;5.514;2022-07-09T00:35:56;18.30;99.90
24226;DHT22;51462;51.422;5.514;2022-07-09T00:38:21;18.40;99.90
24226;DHT22;51462;51.422;5.514;2022-07-09T00:40:47;18.60;99.90
24226;DHT22;51462;51.422;5.514;2022-07-09T00:43:22;18.50;99.90
24226;DHT22;51462;51.422;5.514;2022-07-09T00:45:48;18.40;99.90
24226;DHT22;51462;51.422;5.514;2022-07-09T00:48:14;18.50;99.90
24226;DHT22;51462;51.422;5.514;2022-07-09T00:50:41;18.50;99.90
24226;DHT22;51462;51.422;5.514;2022-07-09T00:53:12;18.50;99.90
24226;DHT22;51462;51.422;5.514;2022-07-09T00:55:38;18.50;99.90
24226;DHT22;51462;51.422;5.514;2022-07-09T00:58:04;18.30;99.90
24226;DHT22;51462;51.422;5.514;2022-07-09T01:00:32;18.20;99.90
24226;DHT22;51462;51.422;5.514;2022-07-09T01:02:57;18.30;99.90
24226;DHT22;51462;51.422;5.514;2022-07-09T01:05:23;18.20;99.90
24226;DHT22;51462;51.422;5.514;2022-07-09T01:07:48;18.40;99.90
24226;DHT22;51462;51.422;5.514;2022-07-09T01:10:14;18.40;99.90
24226;DHT22;51462;51.422;5.514;2022-07-09T01:12:39;18.40;99.90
24226;DHT22;51462;51.422;5.514;2022-07-09T01:15:05;18.40;99.90
24226;DHT22;51462;51.422;5.514;2022-07-09T01:17:41;18.60;99.90
24226;DHT22;51462;51.422;5.514;2022-07-09T01:20:07;18.50;99.90
24226;DHT22;51462;51.422;5.514;2022-07-09T01:22:34;18.50;99.90
24226;DHT22;51462;51.422;5.514;2022-07-09T01:25:01;18.40;99.90
24226;DHT22;51462;51.422;5.514;2022-07-09T01:27:30;18.30;99.90
24226;DHT22;51462;51.422;5.514;2022-07-09T01:29:55;18.20;99.90
24226;DHT22;51462;51.422;5.514;2022-07-09T01:32:21;18.20;99.90
24226;DHT22;51462;51.422;5.514;2022-07-09T01:34:46;18.10;99.90
24226;DHT22;51462;51.422;5.514;2022-07-09T01:37:12;17.90;99.90
24226;DHT22;51462;51.422;5.514;2022-07-09T01:39:38;17.70;99.90
24226;DHT22;51462;51.422;5.514;2022-07-09T01:42:18;17.70;99.90
24226;DHT22;51462;51.422;5.514;2022-07-09T01:44:45;17.70;99.90
24226;DHT22;51462;51.422;5.514;2022-07-09T01:47:11;17.70;99.90
24226;DHT22;51462;51.422;5.514;2022-07-09T01:49:37;17.60;99.90
24226;DHT22;51462;51.422;5.514;2022-07-09T01:52:04;17.50;99.90
24226;DHT22;51462;51.422;5.514;2022-07-09T01:54:29;17.40;99.90
24226;DHT22;51462;51.422;5.514;2022-07-09T01:56:55;17.30;99.90
24226;DHT22;51462;51.422;5.514;2022-07-09T01:59:20;17.20;99.90
24226;DHT22;51462;51.422;5.514;2022-07-09T02:01:46;17.20;99.90
24226;DHT22;51462;51.422;5.514;2022-07-09T02:04:12;17.20;99.90
24226;DHT22;51462;51.422;5.514;2022-07-09T02:06:38;17.10;99.90
24226;DHT22;51462;51.422;5.514;2022-07-09T02:09:03;17.00;99.90
24226;DHT22;51462;51.422;5.514;2022-07-09T02:11:29;17.00;99.90
24226;DHT22;51462;51.422;5.514;2022-07-09T02:13:54;16.90;99.90
24226;DHT22;51462;51.422;5.514;2022-07-09T02:16:20;16.90;99.90
24226;DHT22;51462;51.422;5.514;2022-07-09T02:18:45;16.80;99.90
24226;DHT22;51462;51.422;5.514;2022-07-09T02:21:11;16.80;99.90
24226;DHT22;51462;51.422;5.514;2022-07-09T02:23:37;16.80;99.90
24226;DHT22;51462;51.422;5.514;2022-07-09T02:26:02;16.90;99.90
24226;DHT22;51462;51.422;5.514;2022-07-09T02:28:28;16.90;99.90
24226;DHT22;51462;51.422;5.514;2022-07-09T02:30:54;16.80;99.90
24226;DHT22;51462;51.422;5.514;2022-07-09T02:33:20;16.80;99.90
24226;DHT22;51462;51.422;5.514;2022-07-09T02:35:46;16.70;99.90
24226;DHT22;51462;51.422;5.514;2022-07-09T02:38:12;16.60;99.90
24226;DHT22;51462;51.422;5.514;2022-07-09T02:40:37;16.40;99.90
24226;DHT22;51462;51.422;5.514;2022-07-09T02:43:03;16.80;99.90
24226;DHT22;51462;51.422;5.514;2022-07-09T02:45:28;16.80;99.90
24226;DHT22;51462;51.422;5.514;2022-07-09T02:47:54;16.50;99.90
24226;DHT22;51462;51.422;5.514;2022-07-09T02:50:19;16.40;99.90
24226;DHT22;51462;51.422;5.514;2022-07-09T02:52:45;16.20;99.90
24226;DHT22;51462;51.422;5.514;2022-07-09T02:55:11;16.20;99.90
24226;DHT22;51462;51.422;5.514;2022-07-09T02:57:36;16.10;99.90
24226;DHT22;51462;51.422;5.514;2022-07-09T03:00:03;16.00;99.90
24226;DHT22;51462;51.422;5.514;2022-07-09T03:02:29;16.00;99.90
24226;DHT22;51462;51.422;5.514;2022-07-09T03:04:54;16.00;99.90
24226;DHT22;51462;51.422;5.514;2022-07-09T03:07:20;16.20;99.90
24226;DHT22;51462;51.422;5.514;2022-07-09T03:09:45;16.30;99.90
24226;DHT22;51462;51.422;5.514;2022-07-09T03:12:11;16.30;99.90
24226;DHT22;51462;51.422;5.514;2022-07-09T03:14:36;16.20;99.90
24226;DHT22;51462;51.422;5.514;2022-07-09T03:17:02;16.10;99.90
24226;DHT22;51462;51.422;5.514;2022-07-09T03:19:27;16.00;99.90
24226;DHT22;51462;51.422;5.514;2022-07-09T03:21:53;15.90;99.90
24226;DHT22;51462;51.422;5.514;2022-07-09T03:24:19;15.80;99.90
24226;DHT22;51462;51.422;5.514;2022-07-09T03:26:44;15.70;99.90
24226;DHT22;51462;51.422;5.514;2022-07-09T03:29:10;15.70;99.90
24226;DHT22;51462;51.422;5.514;2022-07-09T03:31:35;15.70;99.90
24226;DHT22;51462;51.422;5.514;2022-07-09T03:34:01;15.60;99.90
24226;DHT22;51462;51.422;5.514;2022-07-09T03:36:26;15.50;99.90
24226;DHT22;51462;51.422;5.514;2022-07-09T03:38:52;15.50;99.90
24226;DHT22;51462;51.422;5.514;2022-07-09T03:41:17;15.50;99.90
24226;DHT22;51462;51.422;5.514;2022-07-09T03:43:43;15.50;99.90
24226;DHT22;51462;51.422;5.514;2022-07-09T03:46:09;15.40;99.90
24226;DHT22;51462;51.422;5.514;2022-07-09T03:48:34;15.30;99.90
24226;DHT22;51462;51.422;5.514;2022-07-09T03:51:00;15.30;99.90
24226;DHT22;51462;51.422;5.514;2022-07-09T03:53:25;15.30;99.90
24226;DHT22;51462;51.422;5.514;2022-07-09T03:55:51;15.30;99.90
24226;DHT22;51462;51.422;5.514;2022-07-09T03:58:16;15.30;99.90
24226;DHT22;51462;51.422;5.514;2022-07-09T04:00:42;15.40;99.90
24226;DHT22;51462;51.422;5.514;2022-07-09T04:03:08;15.40;99.90
24226;DHT22;51462;51.422;5.514;2022-07-09T04:05:33;15.40;99.90
24226;DHT22;51462;51.422;5.514;2022-07-09T04:07:59;15.50;99.90
24226;DHT22;51462;51.422;5.514;2022-07-09T04:10:24;15.40;99.90
24226;DHT22;51462;51.422;5.514;2022-07-09T04:12:50;15.40;99.90
24226;DHT22;51462;51.422;5.514;2022-07-09T04:15:15;15.40;99.90
24226;DHT22;51462;51.422;5.514;2022-07-09T04:17:41;15.40;99.90
24226;DHT22;51462;51.422;5.514;2022-07-09T04:20:07;15.40;99.90
24226;DHT22;51462;51.422;5.514;2022-07-09T04:22:33;15.50;99.90
24226;DHT22;51462;51.422;5.514;2022-07-09T04:24:58;15.60;99.90
24226;DHT22;51462;51.422;5.514;2022-07-09T04:27:24;15.70;99.90
24226;DHT22;51462;51.422;5.514;2022-07-09T04:29:50;15.70;99.90
24226;DHT22;51462;51.422;5.514;2022-07-09T04:32:15;15.70;99.90
24226;DHT22;51462;51.422;5.514;2022-07-09T04:34:41;15.70;99.90
24226;DHT22;51462;51.422;5.514;2022-07-09T04:37:07;15.70;99.90
24226;DHT22;51462;51.422;5.514;2022-07-09T04:39:33;15.80;99.90
24226;DHT22;51462;51.422;5.514;2022-07-09T04:41:58;15.70;99.90
24226;DHT22;51462;51.422;5.514;2022-07-09T04:44:24;15.70;99.90
24226;DHT22;51462;51.422;5.514;2022-07-09T04:46:49;15.70;99.90
24226;DHT22;51462;51.422;5.514;2022-07-09T04:49:15;15.90;99.90
24226;DHT22;51462;51.422;5.514;2022-07-09T04:51:40;16.00;99.90
24226;DHT22;51462;51.422;5.514;2022-07-09T04:54:06;15.90;99.90
24226;DHT22;51462;51.422;5.514;2022-07-09T04:56:32;16.00;99.90
24226;DHT22;51462;51.422;5.514;2022-07-09T04:58:57;16.10;99.90
24226;DHT22;51462;51.422;5.514;2022-07-09T05:01:25;16.10;99.90
24226;DHT22;51462;51.422;5.514;2022-07-09T05:03:52;16.20;99.90
24226;DHT22;51462;51.422;5.514;2022-07-09T05:06:18;16.30;99.90
24226;DHT22;51462;51.422;5.514;2022-07-09T05:08:45;16.50;99.90
24226;DHT22;51462;51.422;5.514;2022-07-09T05:11:10;17.00;99.90
24226;DHT22;51462;51.422;5.514;2022-07-09T05:13:39;17.50;99.90
24226;DHT22;51462;51.422;5.514;2022-07-09T05:16:07;17.70;99.90
24226;DHT22;51462;51.422;5.514;2022-07-09T05:18:34;17.10;99.90
24226;DHT22;51462;51.422;5.514;2022-07-09T05:20:59;16.90;99.90
24226;DHT22;51462;51.422;5.514;2022-07-09T05:23:25;16.90;99.90
24226;DHT22;51462;51.422;5.514;2022-07-09T05:25:50;16.80;99.90
24226;DHT22;51462;51.422;5.514;2022-07-09T05:28:16;16.80;99.90
24226;DHT22;51462;51.422;5.514;2022-07-09T05:30:41;16.90;99.90
24226;DHT22;51462;51.422;5.514;2022-07-09T05:33:07;16.90;99.90
24226;DHT22;51462;51.422;5.514;2022-07-09T05:35:33;17.10;99.90
24226;DHT22;51462;51.422;5.514;2022-07-09T05:37:59;17.40;99.90
24226;DHT22;51462;51.422;5.514;2022-07-09T05:40:25;17.30;99.90
24226;DHT22;51462;51.422;5.514;2022-07-09T05:42:50;17.40;99.90
24226;DHT22;51462;51.422;5.514;2022-07-09T05:45:16;17.60;99.90
24226;DHT22;51462;51.422;5.514;2022-07-09T05:47:41;17.50;99.90
24226;DHT22;51462;51.422;5.514;2022-07-09T05:50:07;17.70;99.90
24226;DHT22;51462;51.422;5.514;2022-07-09T05:52:33;17.80;99.90
24226;DHT22;51462;51.422;5.514;2022-07-09T05:54:58;17.80;99.90
24226;DHT22;51462;51.422;5.514;2022-07-09T05:57:24;17.80;99.90
24226;DHT22;51462;51.422;5.514;2022-07-09T05:59:50;17.80;99.90
24226;DHT22;51462;51.422;5.514;2022-07-09T06:02:16;18.00;99.90
24226;DHT22;51462;51.422;5.514;2022-07-09T06:04:42;17.90;99.90
24226;DHT22;51462;51.422;5.514;2022-07-09T06:07:08;17.90;99.90
24226;DHT22;51462;51.422;5.514;2022-07-09T06:09:34;17.90;99.90
24226;DHT22;51462;51.422;5.514;2022-07-09T06:12:00;17.80;99.90
24226;DHT22;51462;51.422;5.514;2022-07-09T06:14:26;18.00;99.90
24226;DHT22;51462;51.422;5.514;2022-07-09T06:16:51;18.00;99.90
24226;DHT22;51462;51.422;5.514;2022-07-09T06:19:17;17.90;99.90
24226;DHT22;51462;51.422;5.514;2022-07-09T06:21:42;18.00;99.90
24226;DHT22;51462;51.422;5.514;2022-07-09T06:24:08;18.00;99.90
24226;DHT22;51462;51.422;5.514;2022-07-09T06:26:33;18.00;99.90
24226;DHT22;51462;51.422;5.514;2022-07-09T06:28:59;18.00;99.90
24226;DHT22;51462;51.422;5.514;2022-07-09T06:31:25;17.90;99.90
24226;DHT22;51462;51.422;5.514;2022-07-09T06:33:51;17.90;99.90
24226;DHT22;51462;51.422;5.514;2022-07-09T06:36:17;17.90;99.90
24226;DHT22;51462;51.422;5.514;2022-07-09T06:38:43;18.10;99.90
24226;DHT22;51462;51.422;5.514;2022-07-09T06:41:27;18.20;99.90
24226;DHT22;51462;51.422;5.514;2022-07-09T06:43:53;18.50;99.90
24226;DHT22;51462;51.422;5.514;2022-07-09T06:46:18;18.50;99.90
24226;DHT22;51462;51.422;5.514;2022-07-09T06:48:44;18.30;99.90
24226;DHT22;51462;51.422;5.514;2022-07-09T06:51:09;18.30;99.90
24226;DHT22;51462;51.422;5.514;2022-07-09T06:53:35;18.40;99.90
24226;DHT22;51462;51.422;5.514;2022-07-09T06:56:01;18.50;99.90
24226;DHT22;51462;51.422;5.514;2022-07-09T06:58:26;18.60;99.90
24226;DHT22;51462;51.422;5.514;2022-07-09T07:00:52;18.60;99.90
24226;DHT22;51462;51.422;5.514;2022-07-09T07:03:17;18.60;99.90
24226;DHT22;51462;51.422;5.514;2022-07-09T07:05:43;18.60;99.90
24226;DHT22;51462;51.422;5.514;2022-07-09T07:08:09;18.70;99.90
24226;DHT22;51462;51.422;5.514;2022-07-09T07:10:35;18.80;99.90
24226;DHT22;51462;51.422;5.514;2022-07-09T07:13:00;18.90;99.90
24226;DHT22;51462;51.422;5.514;2022-07-09T07:15:26;19.10;99.90
24226;DHT22;51462;51.422;5.514;2022-07-09T07:17:51;19.10;99.90
24226;DHT22;51462;51.422;5.514;2022-07-09T07:20:17;19.20;99.90
24226;DHT22;51462;51.422;5.514;2022-07-09T07:22:45;19.30;99.90
24226;DHT22;51462;51.422;5.514;2022-07-09T07:25:10;19.30;99.90
24226;DHT22;51462;51.422;5.514;2022-07-09T07:27:36;19.30;99.90
24226;DHT22;51462;51.422;5.514;2022-07-09T07:30:02;19.30;99.90
24226;DHT22;51462;51.422;5.514;2022-07-09T07:32:28;19.40;99.90
24226;DHT22;51462;51.422;5.514;2022-07-09T07:34:53;19.50;99.90
24226;DHT22;51462;51.422;5.514;2022-07-09T07:37:19;19.50;99.90
24226;DHT22;51462;51.422;5.514;2022-07-09T07:39:44;19.70;99.90
24226;DHT22;51462;51.422;5.514;2022-07-09T07:42:13;19.80;99.90
24226;DHT22;51462;51.422;5.514;2022-07-09T07:44:38;19.80;99.90
24226;DHT22;51462;51.422;5.514;2022-07-09T07:47:04;19.90;99.90
24226;DHT22;51462;51.422;5.514;2022-07-09T07:49:30;20.00;99.90
24226;DHT22;51462;51.422;5.514;2022-07-09T07:51:55;20.10;99.90
24226;DHT22;51462;51.422;5.514;2022-07-09T07:54:21;20.20;99.90
24226;DHT22;51462;51.422;5.514;2022-07-09T07:56:46;20.20;99.90
24226;DHT22;51462;51.422;5.514;2022-07-09T07:59:12;20.40;99.90
24226;DHT22;51462;51.422;5.514;2022-07-09T08:01:37;20.30;99.90
24226;DHT22;51462;51.422;5.514;2022-07-09T08:04:03;20.20;99.90
24226;DHT22;51462;51.422;5.514;2022-07-09T08:06:28;20.30;99.90
24226;DHT22;51462;51.422;5.514;2022-07-09T08:08:55;20.40;99.90
24226;DHT22;51462;51.422;5.514;2022-07-09T08:11:20;20.60;99.90
24226;DHT22;51462;51.422;5.514;2022-07-09T08:13:46;20.70;99.90
24226;DHT22;51462;51.422;5.514;2022-07-09T08:16:11;20.70;99.90
24226;DHT22;51462;51.422;5.514;2022-07-09T08:18:37;20.70;99.90
24226;DHT22;51462;51.422;5.514;2022-07-09T08:21:03;20.80;99.90
24226;DHT22;51462;51.422;5.514;2022-07-09T08:23:28;20.80;99.90
24226;DHT22;51462;51.422;5.514;2022-07-09T08:25:54;20.90;99.90
24226;DHT22;51462;51.422;5.514;2022-07-09T08:28:19;21.00;99.90
24226;DHT22;51462;51.422;5.514;2022-07-09T08:30:45;21.10;99.90
24226;DHT22;51462;51.422;5.514;2022-07-09T08:33:10;21.10;99.90
24226;DHT22;51462;51.422;5.514;2022-07-09T08:35:36;21.20;99.90
24226;DHT22;51462;51.422;5.514;2022-07-09T08:38:01;21.20;99.90
24226;DHT22;51462;51.422;5.514;2022-07-09T08:40:27;21.30;99.90
24226;DHT22;51462;51.422;5.514;2022-07-09T08:42:54;21.30;99.90
24226;DHT22;51462;51.422;5.514;2022-07-09T08:45:20;21.40;99.90
24226;DHT22;51462;51.422;5.514;2022-07-09T08:47:46;21.50;99.90
24226;DHT22;51462;51.422;5.514;2022-07-09T08:50:13;21.50;99.90
24226;DHT22;51462;51.422;5.514;2022-07-09T08:52:40;21.50;99.90
24226;DHT22;51462;51.422;5.514;2022-07-09T08:55:08;21.60;99.90
24226;DHT22;51462;51.422;5.514;2022-07-09T08:57:34;21.70;99.90
24226;DHT22;51462;51.422;5.514;2022-07-09T09:00:03;21.80;99.90
24226;DHT22;51462;51.422;5.514;2022-07-09T09:02:37;21.80;99.90
24226;DHT22;51462;51.422;5.514;2022-07-09T09:05:13;21.90;99.90
24226;DHT22;51462;51.422;5.514;2022-07-09T09:07:39;22.10;99.90
24226;DHT22;51462;51.422;5.514;2022-07-09T09:10:05;22.00;99.90
24226;DHT22;51462;51.422;5.514;2022-07-09T09:12:31;22.00;99.90
24226;DHT22;51462;51.422;5.514;2022-07-09T09:14:57;21.90;99.90
24226;DHT22;51462;51.422;5.514;2022-07-09T09:17:23;21.90;99.90
24226;DHT22;51462;51.422;5.514;2022-07-09T09:19:48;22.20;99.90
24226;DHT22;51462;51.422;5.514;2022-07-09T09:22:17;22.20;99.90
24226;DHT22;51462;51.422;5.514;2022-07-09T09:24:43;22.30;99.90
24226;DHT22;51462;51.422;5.514;2022-07-09T09:27:09;22.40;99.90
24226;DHT22;51462;51.422;5.514;2022-07-09T09:29:34;22.30;99.90
24226;DHT22;51462;51.422;5.514;2022-07-09T09:32:11;22.30;99.90
24226;DHT22;51462;51.422;5.514;2022-07-09T09:34:37;22.20;99.90
24226;DHT22;51462;51.422;5.514;2022-07-09T09:37:03;22.30;99.90
24226;DHT22;51462;51.422;5.514;2022-07-09T09:39:29;22.50;99.90
24226;DHT22;51462;51.422;5.514;2022-07-09T09:42:00;22.30;99.90
24226;DHT22;51462;51.422;5.514;2022-07-09T09:44:31;22.30;99.90
24226;DHT22;51462;51.422;5.514;2022-07-09T09:47:03;22.40;99.90
24226;DHT22;51462;51.422;5.514;2022-07-09T09:49:29;22.40;99.90
24226;DHT22;51462;51.422;5.514;2022-07-09T09:52:04;22.40;99.90
24226;DHT22;51462;51.422;5.514;2022-07-09T09:54:35;22.50;99.90
24226;DHT22;51462;51.422;5.514;2022-07-09T09:57:09;22.50;99.90
24226;DHT22;51462;51.422;5.514;2022-07-09T09:59:39;22.60;99.90
24226;DHT22;51462;51.422;5.514;2022-07-09T10:02:06;22.60;99.90
24226;DHT22;51462;51.422;5.514;2022-07-09T10:04:32;22.60;99.90
24226;DHT22;51462;51.422;5.514;2022-07-09T10:06:58;22.80;99.90
24226;DHT22;51462;51.422;5.514;2022-07-09T10:09:24;22.80;99.90
24226;DHT22;51462;51.422;5.514;2022-07-09T10:11:49;22.60;99.90
24226;DHT22;51462;51.422;5.514;2022-07-09T10:14:33;22.50;99.90
24226;DHT22;51462;51.422;5.514;2022-07-09T10:17:15;22.60;99.90
24226;DHT22;51462;51.422;5.514;2022-07-09T10:19:58;22.70;99.90
24226;DHT22;51462;51.422;5.514;2022-07-09T10:22:43;22.90;99.90
24226;DHT22;51462;51.422;5.514;2022-07-09T10:25:11;22.70;99.90
24226;DHT22;51462;51.422;5.514;2022-07-09T10:30:08;22.60;99.90
24226;DHT22;51462;51.422;5.514;2022-07-09T10:32:48;22.50;99.90
24226;DHT22;51462;51.422;5.514;2022-07-09T10:35:26;22.50;99.90
24226;DHT22;51462;51.422;5.514;2022-07-09T10:37:54;22.60;99.90
24226;DHT22;51462;51.422;5.514;2022-07-09T10:40:20;22.60;99.90
24226;DHT22;51462;51.422;5.514;2022-07-09T10:43:00;22.70;99.90
24226;DHT22;51462;51.422;5.514;2022-07-09T10:45:28;22.50;99.90
24226;DHT22;51462;51.422;5.514;2022-07-09T10:47:59;22.60;99.90
24226;DHT22;51462;51.422;5.514;2022-07-09T10:50:26;22.20;99.90
24226;DHT22;51462;51.422;5.514;2022-07-09T10:52:53;22.20;99.90
24226;DHT22;51462;51.422;5.514;2022-07-09T10:55:21;22.50;99.90
24226;DHT22;51462;51.422;5.514;2022-07-09T10:57:46;22.60;99.90
24226;DHT22;51462;51.422;5.514;2022-07-09T11:00:16;22.70;99.90
24226;DHT22;51462;51.422;5.514;2022-07-09T11:03:05;22.80;99.90
24226;DHT22;51462;51.422;5.514;2022-07-09T11:05:42;22.90;99.90
24226;DHT22;51462;51.422;5.514;2022-07-09T11:08:08;23.20;99.90
24226;DHT22;51462;51.422;5.514;2022-07-09T11:10:36;23.20;99.90
24226;DHT22;51462;51.422;5.514;2022-07-09T11:13:02;23.20;99.90
24226;DHT22;51462;51.422;5.514;2022-07-09T11:15:30;23.20;99.90
24226;DHT22;51462;51.422;5.514;2022-07-09T11:18:19;23.40;99.90
24226;DHT22;51462;51.422;5.514;2022-07-09T11:20:46;23.50;99.90
24226;DHT22;51462;51.422;5.514;2022-07-09T11:23:13;23.40;99.90
24226;DHT22;51462;51.422;5.514;2022-07-09T11:25:39;23.50;99.90
24226;DHT22;51462;51.422;5.514;2022-07-09T11:28:04;23.70;99.90
24226;DHT22;51462;51.422;5.514;2022-07-09T11:30:30;23.90;99.90
24226;DHT22;51462;51.422;5.514;2022-07-09T11:32:58;23.90;99.90
24226;DHT22;51462;51.422;5.514;2022-07-09T11:35:32;24.00;99.90
24226;DHT22;51462;51.422;5.514;2022-07-09T11:38:03;24.00;99.90
24226;DHT22;51462;51.422;5.514;2022-07-09T11:40:29;24.20;99.90
24226;DHT22;51462;51.422;5.514;2022-07-09T11:42:55;24.20;99.90
24226;DHT22;51462;51.422;5.514;2022-07-09T11:45:22;24.30;99.90
24226;DHT22;51462;51.422;5.514;2022-07-09T11:47:48;24.30;99.90
24226;DHT22;51462;51.422;5.514;2022-07-09T11:50:16;24.40;99.90
24226;DHT22;51462;51.422;5.514;2022-07-09T11:52:50;24.20;99.90
24226;DHT22;51462;51.422;5.514;2022-07-09T11:55:38;24.30;99.90
24226;DHT22;51462;51.422;5.514;2022-07-09T11:58:06;24.50;99.90
24226;DHT22;51462;51.422;5.514;2022-07-09T12:00:35;24.50;99.90
24226;DHT22;51462;51.422;5.514;2022-07-09T12:03:05;24.70;99.90
24226;DHT22;51462;51.422;5.514;2022-07-09T12:05:33;24.90;99.90
24226;DHT22;51462;51.422;5.514;2022-07-09T12:08:03;24.70;99.90
24226;DHT22;51462;51.422;5.514;2022-07-09T12:10:40;24.80;99.90
24226;DHT22;51462;51.422;5.514;2022-07-09T12:13:06;24.70;99.90
24226;DHT22;51462;51.422;5.514;2022-07-09T12:15:35;24.70;99.90
24226;DHT22;51462;51.422;5.514;2022-07-09T12:18:01;25.00;99.90
24226;DHT22;51462;51.422;5.514;2022-07-09T12:20:32;25.00;99.90
24226;DHT22;51462;51.422;5.514;2022-07-09T12:22:58;24.90;99.90
24226;DHT22;51462;51.422;5.514;2022-07-09T12:25:24;24.50;99.90
24226;DHT22;51462;51.422;5.514;2022-07-09T12:27:50;24.80;99.90
24226;DHT22;51462;51.422;5.514;2022-07-09T12:30:18;24.80;99.90
24226;DHT22;51462;51.422;5.514;2022-07-09T12:32:44;24.70;99.90
24226;DHT22;51462;51.422;5.514;2022-07-09T12:35:11;25.10;99.90
24226;DHT22;51462;51.422;5.514;2022-07-09T12:37:37;25.20;99.90
24226;DHT22;51462;51.422;5.514;2022-07-09T12:40:04;25.20;99.90
24226;DHT22;51462;51.422;5.514;2022-07-09T12:42:30;25.20;99.90
24226;DHT22;51462;51.422;5.514;2022-07-09T12:44:55;25.10;99.90
24226;DHT22;51462;51.422;5.514;2022-07-09T12:47:21;24.90;99.90
24226;DHT22;51462;51.422;5.514;2022-07-09T12:49:47;25.10;99.90
24226;DHT22;51462;51.422;5.514;2022-07-09T12:52:12;25.20;99.90
24226;DHT22;51462;51.422;5.514;2022-07-09T12:54:38;25.60;99.90
24226;DHT22;51462;51.422;5.514;2022-07-09T12:57:04;25.60;99.90
24226;DHT22;51462;51.422;5.514;2022-07-09T12:59:30;25.60;99.90
24226;DHT22;51462;51.422;5.514;2022-07-09T13:01:55;25.20;99.90
24226;DHT22;51462;51.422;5.514;2022-07-09T13:04:21;25.30;99.90
24226;DHT22;51462;51.422;5.514;2022-07-09T13:06:47;25.50;99.90
24226;DHT22;51462;51.422;5.514;2022-07-09T13:09:12;25.80;99.90
24226;DHT22;51462;51.422;5.514;2022-07-09T13:11:38;25.90;99.90
24226;DHT22;51462;51.422;5.514;2022-07-09T13:14:04;25.80;99.90
24226;DHT22;51462;51.422;5.514;2022-07-09T13:16:30;25.80;99.90
24226;DHT22;51462;51.422;5.514;2022-07-09T13:18:55;25.70;99.90
24226;DHT22;51462;51.422;5.514;2022-07-09T13:21:22;25.90;99.90
24226;DHT22;51462;51.422;5.514;2022-07-09T13:23:48;25.80;99.90
24226;DHT22;51462;51.422;5.514;2022-07-09T13:26:15;26.00;99.90
24226;DHT22;51462;51.422;5.514;2022-07-09T13:28:41;25.90;99.90
24226;DHT22;51462;51.422;5.514;2022-07-09T13:31:07;25.40;99.90
24226;DHT22;51462;51.422;5.514;2022-07-09T13:33:34;25.90;99.90
24226;DHT22;51462;51.422;5.514;2022-07-09T13:36:00;25.70;99.90
24226;DHT22;51462;51.422;5.514;2022-07-09T13:38:27;25.70;99.90
24226;DHT22;51462;51.422;5.514;2022-07-09T13:40:54;26.00;99.90
24226;DHT22;51462;51.422;5.514;2022-07-09T13:43:19;26.20;99.90
24226;DHT22;51462;51.422;5.514;2022-07-09T13:45:45;26.30;99.90
24226;DHT22;51462;51.422;5.514;2022-07-09T13:48:10;26.00;99.90
24226;DHT22;51462;51.422;5.514;2022-07-09T13:50:36;26.50;99.90
24226;DHT22;51462;51.422;5.514;2022-07-09T13:53:05;26.00;99.90
24226;DHT22;51462;51.422;5.514;2022-07-09T13:55:31;26.10;99.90
24226;DHT22;51462;51.422;5.514;2022-07-09T13:57:56;26.30;99.90
24226;DHT22;51462;51.422;5.514;2022-07-09T14:00:22;26.10;99.90
24226;DHT22;51462;51.422;5.514;2022-07-09T14:02:48;26.10;99.90
24226;DHT22;51462;51.422;5.514;2022-07-09T14:05:14;26.60;99.90
24226;DHT22;51462;51.422;5.514;2022-07-09T14:07:40;26.30;99.90
24226;DHT22;51462;51.422;5.514;2022-07-09T14:10:05;26.70;99.90
24226;DHT22;51462;51.422;5.514;2022-07-09T14:12:31;27.00;99.90
24226;DHT22;51462;51.422;5.514;2022-07-09T14:14:57;27.40;99.90
24226;DHT22;51462;51.422;5.514;2022-07-09T14:17:23;27.20;99.90
24226;DHT22;51462;51.422;5.514;2022-07-09T14:19:49;27.60;99.90
24226;DHT22;51462;51.422;5.514;2022-07-09T14:22:15;27.90;99.90
24226;DHT22;51462;51.422;5.514;2022-07-09T14:24:40;28.00;99.90
24226;DHT22;51462;51.422;5.514;2022-07-09T14:27:06;28.10;99.90
24226;DHT22;51462;51.422;5.514;2022-07-09T14:29:32;27.70;99.90
24226;DHT22;51462;51.422;5.514;2022-07-09T14:31:57;28.10;99.90
24226;DHT22;51462;51.422;5.514;2022-07-09T14:34:23;27.90;99.90
24226;DHT22;51462;51.422;5.514;2022-07-09T14:36:50;27.50;99.90
24226;DHT22;51462;51.422;5.514;2022-07-09T14:39:18;28.00;99.90
24226;DHT22;51462;51.422;5.514;2022-07-09T14:41:44;27.10;99.90
24226;DHT22;51462;51.422;5.514;2022-07-09T14:44:10;27.70;99.90
24226;DHT22;51462;51.422;5.514;2022-07-09T14:46:37;28.10;99.90
24226;DHT22;51462;51.422;5.514;2022-07-09T14:49:03;28.30;99.70
24226;DHT22;51462;51.422;5.514;2022-07-09T14:51:29;28.10;99.90
24226;DHT22;51462;51.422;5.514;2022-07-09T14:53:54;28.50;99.90
24226;DHT22;51462;51.422;5.514;2022-07-09T14:56:20;28.00;99.50
24226;DHT22;51462;51.422;5.514;2022-07-09T14:58:45;27.40;99.90
24226;DHT22;51462;51.422;5.514;2022-07-09T15:01:11;28.10;99.90
24226;DHT22;51462;51.422;5.514;2022-07-09T15:03:37;28.00;99.90
24226;DHT22;51462;51.422;5.514;2022-07-09T15:06:02;28.10;98.80
24226;DHT22;51462;51.422;5.514;2022-07-09T15:08:28;28.10;99.90
24226;DHT22;51462;51.422;5.514;2022-07-09T15:10:54;28.40;99.90
24226;DHT22;51462;51.422;5.514;2022-07-09T15:13:19;28.30;98.30
24226;DHT22;51462;51.422;5.514;2022-07-09T15:15:45;28.40;99.70
24226;DHT22;51462;51.422;5.514;2022-07-09T15:18:10;28.70;99.70
24226;DHT22;51462;51.422;5.514;2022-07-09T15:20:36;28.60;99.90
24226;DHT22;51462;51.422;5.514;2022-07-09T15:23:01;27.70;99.90
24226;DHT22;51462;51.422;5.514;2022-07-09T15:25:27;28.50;99.90
24226;DHT22;51462;51.422;5.514;2022-07-09T15:27:56;28.50;99.90
24226;DHT22;51462;51.422;5.514;2022-07-09T15:30:22;28.70;99.90